Time;durP1;ratioP1;P1;durP2;ratioP2;P2;SDS_P1;SDS_P2;PMS_P1;PMS_P2;Temp;Humidity;BMP_temperature;BMP_pressure;BME280_temperature;BME280_humidity;BME280_pressure;Samples;Min_cycle;Max_cycle;Signal;HPM_P1;HPM_P2
2022/10/02 00:01:30;;;;;;;2.13;1.92;;;;;;;;;;5034060;28;20036;-68
2022/10/02 00:03:57;;;;;;;2.65;2.00;;;;;;;;;;5033736;28;20025;-71
2022/10/02 00:06:24;;;;;;;3.72;2.10;;;;;;;;;;5034038;28;20373;-71
2022/10/02 00:08:58;;;;;;;2.20;2.00;;;;;;;;;;5032799;28;20028;-71
2022/10/02 00:11:40;;;;;;;2.20;1.98;;;;;;;;;;5031943;28;20021;-71
2022/10/02 00:14:10;;;;;;;2.83;2.00;;;;;;;;;;5032335;28;20075;-70
2022/10/02 00:16:42;;;;;;;1.98;1.70;;;;;;;;;;5032994;28;20057;-71
2022/10/02 00:19:10;;;;;;;2.40;2.08;;;;;;;;;;5034971;28;20436;-67
2022/10/02 00:22:13;;;;;;;2.22;1.90;;;;;;;;;;5034300;28;20035;-69
2022/10/02 00:24:51;;;;;;;2.22;2.03;;;;;;;;;;5034453;28;20091;-66
2022/10/02 00:27:38;;;;;;;2.45;2.25;;;;;;;;;;5034519;28;20013;-67
2022/10/02 00:30:04;;;;;;;1.90;1.80;;;;;;;;;;5034525;28;20503;-68
2022/10/02 00:32:42;;;;;;;1.90;1.80;;;;;;;;;;5034459;28;20048;-66
2022/10/02 00:35:26;;;;;;;2.35;2.10;;;;;;;;;;5033056;28;20036;-68
2022/10/02 00:38:29;;;;;;;2.88;1.90;;;;;;;;;;5034382;28;20477;-68
2022/10/02 00:41:16;;;;;;;2.25;1.90;;;;;;;;;;5033834;28;20077;-66
2022/10/02 00:44:30;;;;;;;2.60;2.10;;;;;;;;;;5066460;28;20025;-69
2022/10/02 00:47:10;;;;;;;2.10;1.90;;;;;;;;;;5031980;28;20048;-67
2022/10/02 00:49:41;;;;;;;2.00;1.90;;;;;;;;;;5034100;28;20031;-67
2022/10/02 00:52:25;;;;;;;3.35;1.80;;;;;;;;;;5034165;28;20036;-67
2022/10/02 00:55:10;;;;;;;1.88;1.77;;;;;;;;;;5034252;28;20367;-67
2022/10/02 00:58:00;;;;;;;2.03;1.83;;;;;;;;;;5034311;28;20041;-68
2022/10/02 01:00:25;;;;;;;2.13;1.92;;;;;;;;;;5034258;28;20021;-68
2022/10/02 01:02:59;;;;;;;2.65;2.00;;;;;;;;;;5033763;28;20029;-69
2022/10/02 01:05:26;;;;;;;2.00;1.80;;;;;;;;;;5033840;28;20025;-69
2022/10/02 01:07:53;;;;;;;2.58;2.15;;;;;;;;;;5034030;28;20103;-70
2022/10/02 01:10:21;;;;;;;2.33;1.70;;;;;;;;;;5033873;28;20025;-67
2022/10/02 01:12:48;;;;;;;2.10;1.90;;;;;;;;;;5033636;28;20030;-67
2022/10/02 01:15:20;;;;;;;2.30;1.90;;;;;;;;;;5033519;28;20021;-69
2022/10/02 01:17:48;;;;;;;2.85;2.28;;;;;;;;;;5033555;28;20021;-71
2022/10/02 01:20:18;;;;;;;3.47;1.83;;;;;;;;;;5033765;28;20083;-69
2022/10/02 01:23:14;;;;;;;1.90;1.80;;;;;;;;;;5033630;28;20082;-69
2022/10/02 01:25:40;;;;;;;1.80;1.70;;;;;;;;;;5033684;28;20029;-70
2022/10/02 01:28:06;;;;;;;1.95;1.85;;;;;;;;;;5065720;28;20454;-69
2022/10/02 01:30:34;;;;;;;2.28;1.98;;;;;;;;;;5033318;28;20056;-69
2022/10/02 01:33:02;;;;;;;2.20;2.00;;;;;;;;;;5033571;28;20381;-68
2022/10/02 01:35:33;;;;;;;2.03;1.77;;;;;;;;;;5033202;28;20508;-69
2022/10/02 01:38:03;;;;;;;2.53;1.90;;;;;;;;;;5032581;28;20064;-69
2022/10/02 01:40:37;;;;;;;2.63;1.90;;;;;;;;;;5032969;28;20053;-67
2022/10/02 01:43:13;;;;;;;2.67;1.90;;;;;;;;;;5033287;28;20049;-69
2022/10/02 01:46:00;;;;;;;1.98;1.80;;;;;;;;;;5033322;28;20080;-70
2022/10/02 01:48:37;;;;;;;1.98;1.88;;;;;;;;;;5033048;28;20101;-69
2022/10/02 01:51:06;;;;;;;3.60;2.00;;;;;;;;;;5032960;28;20025;-69
2022/10/02 01:53:54;;;;;;;2.10;1.90;;;;;;;;;;5032863;28;20116;-66
2022/10/02 01:56:35;;;;;;;1.80;1.70;;;;;;;;;;5033394;28;20068;-68
2022/10/02 01:59:22;;;;;;;1.75;1.65;;;;;;;;;;5032871;28;20112;-69
2022/10/02 02:02:18;;;;;;;2.47;1.75;;;;;;;;;;5033039;28;20036;-67
2022/10/02 02:04:55;;;;;;;1.83;1.73;;;;;;;;;;5032976;28;20021;-68
2022/10/02 02:07:39;;;;;;;1.88;1.77;;;;;;;;;;5032991;28;20025;-69
2022/10/02 02:10:17;;;;;;;1.60;1.50;;;;;;;;;;5032730;28;20041;-69
2022/10/02 02:12:47;;;;;;;1.80;1.70;;;;;;;;;;5032566;28;20018;-68
2022/10/02 02:15:22;;;;;;;2.05;1.90;;;;;;;;;;5032714;28;20028;-67
2022/10/02 02:17:53;;;;;;;1.80;1.60;;;;;;;;;;5032544;28;20080;-69
2022/10/02 02:20:29;;;;;;;1.77;1.65;;;;;;;;;;5032858;28;20029;-69
2022/10/02 02:23:03;;;;;;;3.20;1.90;;;;;;;;;;5032511;28;20036;-69
2022/10/02 02:25:32;;;;;;;2.05;1.90;;;;;;;;;;5032839;28;20195;-68
2022/10/02 02:28:02;;;;;;;3.50;1.75;;;;;;;;;;5032384;28;20072;-67
2022/10/02 02:30:30;;;;;;;1.85;1.75;;;;;;;;;;5032444;28;20485;-69
2022/10/02 02:33:00;;;;;;;2.10;2.00;;;;;;;;;;5032424;28;20033;-67
2022/10/02 02:35:34;;;;;;;2.03;1.90;;;;;;;;;;5032566;28;20408;-67
2022/10/02 02:38:05;;;;;;;2.10;1.90;;;;;;;;;;5032597;28;20105;-70
2022/10/02 02:40:35;;;;;;;2.95;1.80;;;;;;;;;;5063572;28;20061;-68
2022/10/02 02:43:05;;;;;;;1.95;1.85;;;;;;;;;;5032193;28;20039;-69
2022/10/02 02:45:54;;;;;;;1.70;1.60;;;;;;;;;;5032542;28;20025;-67
2022/10/02 02:48:27;;;;;;;1.83;1.73;;;;;;;;;;5032352;28;20060;-67
2022/10/02 02:51:06;;;;;;;2.00;1.80;;;;;;;;;;5036373;28;20031;-68
2022/10/02 02:53:36;;;;;;;2.33;2.13;;;;;;;;;;5036371;28;20025;-69
2022/10/02 02:56:05;;;;;;;1.88;1.77;;;;;;;;;;5036464;28;20448;-68
2022/10/02 02:58:38;;;;;;;1.92;1.70;;;;;;;;;;5036549;28;20034;-67
2022/10/02 03:01:04;;;;;;;1.83;1.58;;;;;;;;;;5036067;28;20044;-70
2022/10/02 03:03:30;;;;;;;1.98;1.75;;;;;;;;;;5036106;28;20029;-69
2022/10/02 03:06:09;;;;;;;1.90;1.63;;;;;;;;;;5036069;28;20033;-70
2022/10/02 03:08:36;;;;;;;1.95;1.85;;;;;;;;;;5036376;28;20076;-70
2022/10/02 03:11:25;;;;;;;2.00;1.85;;;;;;;;;;5036209;28;20033;-69
2022/10/02 03:14:21;;;;;;;2.10;1.88;;;;;;;;;;5036255;28;20022;-68
2022/10/02 03:16:46;;;;;;;1.90;1.80;;;;;;;;;;5035891;28;20033;-69
2022/10/02 03:19:40;;;;;;;2.10;1.90;;;;;;;;;;5035836;28;20029;-68
2022/10/02 03:22:34;;;;;;;2.05;1.80;;;;;;;;;;5035781;28;20382;-69
2022/10/02 03:25:30;;;;;;;2.20;1.80;;;;;;;;;;5034564;28;20048;-68
2022/10/02 03:28:11;;;;;;;1.90;1.80;;;;;;;;;;5036248;28;20408;-69
2022/10/02 03:30:38;;;;;;;1.58;1.48;;;;;;;;;;5035552;28;20029;-69
2022/10/02 03:33:06;;;;;;;1.67;1.58;;;;;;;;;;5035589;28;20053;-68
2022/10/02 03:35:32;;;;;;;4.38;1.80;;;;;;;;;;5035787;28;20075;-69
2022/10/02 03:38:10;;;;;;;1.70;1.60;;;;;;;;;;5035690;28;20037;-68
2022/10/02 03:40:35;;;;;;;2.47;1.90;;;;;;;;;;5035414;28;20057;-69
2022/10/02 03:43:01;;;;;;;1.65;1.55;;;;;;;;;;5035549;28;20381;-68
2022/10/02 03:45:27;;;;;;;1.80;1.70;;;;;;;;;;5035387;28;20068;-70
2022/10/02 03:47:53;;;;;;;1.77;1.67;;;;;;;;;;5035252;28;20028;-69
2022/10/02 03:50:20;;;;;;;2.58;1.90;;;;;;;;;;5035180;28;20112;-69
2022/10/02 03:52:48;;;;;;;1.98;1.80;;;;;;;;;;5035525;28;20030;-68
2022/10/02 03:55:26;;;;;;;2.10;1.90;;;;;;;;;;5035164;28;20029;-69
2022/10/02 03:57:53;;;;;;;2.30;2.10;;;;;;;;;;5035089;28;20029;-68
2022/10/02 04:00:29;;;;;;;1.90;1.75;;;;;;;;;;5034549;28;20049;-69
2022/10/02 04:02:59;;;;;;;2.00;1.90;;;;;;;;;;5034965;28;20045;-67
2022/10/02 04:05:35;;;;;;;3.78;1.75;;;;;;;;;;5034962;28;20067;-68
2022/10/02 04:08:22;;;;;;;2.38;1.63;;;;;;;;;;5034836;28;20021;-69
2022/10/02 04:10:59;;;;;;;2.05;1.65;;;;;;;;;;5035029;28;20386;-68
2022/10/02 04:13:27;;;;;;;2.10;1.70;;;;;;;;;;5034854;28;20105;-69
2022/10/02 04:16:07;;;;;;;2.53;1.70;;;;;;;;;;5034762;28;20430;-68
2022/10/02 04:18:51;;;;;;;1.85;1.63;;;;;;;;;;5035058;28;20027;-66
2022/10/02 04:21:20;;;;;;;1.85;1.75;;;;;;;;;;5034814;28;20061;-69
2022/10/02 04:23:52;;;;;;;1.88;1.77;;;;;;;;;;5034654;28;20025;-69
2022/10/02 04:26:40;;;;;;;1.88;1.77;;;;;;;;;;5034596;28;20067;-69
2022/10/02 04:29:15;;;;;;;2.67;1.90;;;;;;;;;;5034867;28;20071;-69
2022/10/02 04:31:40;;;;;;;1.70;1.60;;;;;;;;;;5034612;28;20108;-68
2022/10/02 04:34:09;;;;;;;1.70;1.60;;;;;;;;;;5034478;28;20112;-68
2022/10/02 04:36:52;;;;;;;1.88;1.75;;;;;;;;;;5034610;28;20021;-69
2022/10/02 04:39:44;;;;;;;1.67;1.58;;;;;;;;;;5034219;28;20116;-68
2022/10/02 04:42:48;;;;;;;1.75;1.65;;;;;;;;;;5033775;28;20069;-69
2022/10/02 04:45:46;;;;;;;1.80;1.70;;;;;;;;;;5042948;28;20053;-70
2022/10/02 04:48:38;;;;;;;1.70;1.60;;;;;;;;;;5034510;28;20405;-69
2022/10/02 04:51:33;;;;;;;2.72;1.80;;;;;;;;;;5033181;28;20056;-70
2022/10/02 04:54:13;;;;;;;2.65;1.52;;;;;;;;;;5032768;28;20033;-70
2022/10/02 04:56:51;;;;;;;2.25;1.70;;;;;;;;;;5033994;28;20025;-69
2022/10/02 05:00:02;;;;;;;1.60;1.50;;;;;;;;;;5033984;28;20040;-68
2022/10/02 05:02:33;;;;;;;1.60;1.50;;;;;;;;;;5031430;28;20033;-69
2022/10/02 05:05:07;;;;;;;1.80;1.70;;;;;;;;;;5015175;28;20056;-68
2022/10/02 05:08:04;;;;;;;2.00;1.60;;;;;;;;;;5032806;28;20102;-68
2022/10/02 05:10:35;;;;;;;4.80;1.70;;;;;;;;;;5032772;28;20473;-68
2022/10/02 05:13:11;;;;;;;2.38;1.80;;;;;;;;;;5032973;28;20036;-66
2022/10/02 05:15:45;;;;;;;1.80;1.70;;;;;;;;;;5033864;28;20378;-69
2022/10/02 05:18:42;;;;;;;1.50;1.40;;;;;;;;;;5033634;28;20382;-68
2022/10/02 05:21:24;;;;;;;1.80;1.70;;;;;;;;;;5033481;28;20056;-69
2022/10/02 05:24:27;;;;;;;1.50;1.40;;;;;;;;;;5033809;28;20026;-70
2022/10/02 05:27:07;;;;;;;2.28;1.50;;;;;;;;;;5033664;28;20025;-69
2022/10/02 05:29:47;;;;;;;2.00;1.60;;;;;;;;;;5033692;28;20179;-69
2022/10/02 05:32:22;;;;;;;;;;;;;;;;;;5033717;28;20115;-67
2022/10/02 05:35:41;;;;;;;4.07;1.80;;;;;;;;;;5033622;28;20223;-68
2022/10/02 05:38:34;;;;;;;1.75;1.65;;;;;;;;;;5030853;28;20132;-68
2022/10/02 05:41:09;;;;;;;2.08;1.58;;;;;;;;;;5030555;28;20386;-68
2022/10/02 05:43:37;;;;;;;1.60;1.50;;;;;;;;;;5032908;28;20428;-67
2022/10/02 05:46:15;;;;;;;1.60;1.50;;;;;;;;;;5033158;28;20028;-66
2022/10/02 05:48:51;;;;;;;2.50;1.75;;;;;;;;;;5033042;28;20120;-66
2022/10/02 05:51:35;;;;;;;2.50;1.73;;;;;;;;;;5033062;28;20029;-66
2022/10/02 05:54:27;;;;;;;2.53;1.60;;;;;;;;;;5032985;28;20036;-67
2022/10/02 05:57:14;;;;;;;2.80;1.60;;;;;;;;;;5032826;28;20061;-67
2022/10/02 06:00:04;;;;;;;1.85;1.67;;;;;;;;;;5032931;28;20354;-66
2022/10/02 06:02:56;;;;;;;;;;;;;;;;;;5033471;28;20380;-68
2022/10/02 06:05:40;;;;;;;1.50;1.40;;;;;;;;;;5039214;28;19913;-68
2022/10/02 06:08:10;;;;;;;2.08;1.80;;;;;;;;;;5032971;28;20079;-68
2022/10/02 06:10:40;;;;;;;;;;;;;;;;;;5033302;28;20366;-68
2022/10/02 06:13:14;;;;;;;1.92;1.83;;;;;;;;;;5032640;28;19913;-67
2022/10/02 06:15:48;;;;;;;1.35;1.30;;;;;;;;;;5032699;28;20083;-67
2022/10/02 06:18:20;;;;;;;1.80;1.70;;;;;;;;;;5032634;28;20474;-66
2022/10/02 06:21:00;;;;;;;1.58;1.48;;;;;;;;;;5032603;28;20504;-67
2022/10/02 06:23:32;;;;;;;1.70;1.60;;;;;;;;;;5064239;28;20065;-68
2022/10/02 06:26:09;;;;;;;1.70;1.60;;;;;;;;;;5032613;28;20437;-68
2022/10/02 06:28:47;;;;;;;2.85;1.60;;;;;;;;;;5032444;28;20116;-67
2022/10/02 06:31:21;;;;;;;1.80;1.70;;;;;;;;;;5032468;28;20056;-66
2022/10/02 06:33:46;;;;;;;1.50;1.40;;;;;;;;;;5032400;28;20510;-67
2022/10/02 06:36:32;;;;;;;1.83;1.73;;;;;;;;;;5032395;28;20033;-66
2022/10/02 06:39:15;;;;;;;1.50;1.40;;;;;;;;;;5064094;28;20120;-67
2022/10/02 06:41:46;;;;;;;2.70;1.83;;;;;;;;;;5032245;28;20057;-67
2022/10/02 06:44:34;;;;;;;1.80;1.70;;;;;;;;;;5031096;28;20404;-68
2022/10/02 06:47:33;;;;;;;1.67;1.58;;;;;;;;;;5064365;28;20100;-67
2022/10/02 06:50:43;;;;;;;1.60;1.50;;;;;;;;;;5032268;28;20037;-68
2022/10/02 06:53:46;;;;;;;1.60;1.50;;;;;;;;;;5031793;28;20087;-69
2022/10/02 06:56:32;;;;;;;1.55;1.45;;;;;;;;;;5032146;28;20087;-68
2022/10/02 06:59:21;;;;;;;2.15;1.50;;;;;;;;;;5032523;28;20028;-70
2022/10/02 07:02:16;;;;;;;1.88;1.67;;;;;;;;;;5032165;28;20030;-68
2022/10/02 07:04:48;;;;;;;1.70;1.60;;;;;;;;;;5032374;28;20132;-68
2022/10/02 07:07:56;;;;;;;2.20;1.63;;;;;;;;;;5032288;28;20479;-67
2022/10/02 07:10:38;;;;;;;1.65;1.52;;;;;;;;;;5032138;28;20024;-68
2022/10/02 07:13:11;;;;;;;4.70;1.75;;;;;;;;;;5032081;28;20029;-68
2022/10/02 07:15:54;;;;;;;1.60;1.50;;;;;;;;;;5032011;28;20025;-69
2022/10/02 07:18:36;;;;;;;2.25;1.58;;;;;;;;;;5032052;28;20049;-70
2022/10/02 07:21:23;;;;;;;2.03;1.40;;;;;;;;;;5032135;28;20033;-69
2022/10/02 07:23:48;;;;;;;1.50;1.40;;;;;;;;;;5030670;28;20029;-69
2022/10/02 07:26:26;;;;;;;1.55;1.45;;;;;;;;;;5031936;28;20105;-69
2022/10/02 07:29:00;;;;;;;2.03;1.50;;;;;;;;;;5032170;28;20032;-69
2022/10/02 07:31:47;;;;;;;1.85;1.50;;;;;;;;;;5032260;28;20378;-69
2022/10/02 07:34:31;;;;;;;1.67;1.58;;;;;;;;;;5031908;28;20030;-69
2022/10/02 07:37:13;;;;;;;1.50;1.40;;;;;;;;;;5035848;28;20176;-69
2022/10/02 07:40:12;;;;;;;1.67;1.58;;;;;;;;;;5035383;28;20451;-69
2022/10/02 07:42:56;;;;;;;1.83;1.60;;;;;;;;;;5035255;28;20034;-69
2022/10/02 07:45:30;;;;;;;1.55;1.45;;;;;;;;;;5035350;28;20504;-69
2022/10/02 07:47:58;;;;;;;1.52;1.42;;;;;;;;;;5035297;28;20084;-69
2022/10/02 07:50:23;;;;;;;1.48;1.38;;;;;;;;;;5035335;28;20052;-69
2022/10/02 07:53:14;;;;;;;1.70;1.60;;;;;;;;;;5035113;28;20053;-69
2022/10/02 07:55:42;;;;;;;1.52;1.42;;;;;;;;;;5035222;28;20032;-69
2022/10/02 07:58:34;;;;;;;3.95;1.80;;;;;;;;;;5033886;28;20025;-69
2022/10/02 08:01:03;;;;;;;1.63;1.50;;;;;;;;;;5033666;28;20025;-69
2022/10/02 08:03:32;;;;;;;1.58;1.48;;;;;;;;;;5034829;28;20481;-68
2022/10/02 08:06:00;;;;;;;1.70;1.60;;;;;;;;;;5034813;28;20037;-69
2022/10/02 08:08:46;;;;;;;1.40;1.30;;;;;;;;;;5031403;28;20033;-67
2022/10/02 08:11:16;;;;;;;1.63;1.52;;;;;;;;;;5030319;28;20021;-70
2022/10/02 08:13:54;;;;;;;1.63;1.48;;;;;;;;;;5054383;28;20033;-67
2022/10/02 08:16:25;;;;;;;1.80;1.70;;;;;;;;;;5028730;28;20047;-69
2022/10/02 08:19:17;;;;;;;3.33;1.63;;;;;;;;;;5026009;28;20454;-67
2022/10/02 08:21:47;;;;;;;1.85;1.73;;;;;;;;;;5028265;28;20041;-70
2022/10/02 08:24:22;;;;;;;1.55;1.45;;;;;;;;;;5028092;28;20017;-69
2022/10/02 08:27:01;;;;;;;1.30;1.20;;;;;;;;;;5029356;28;20021;-68
2022/10/02 08:29:43;;;;;;;1.73;1.63;;;;;;;;;;5025182;28;20369;-69
2022/10/02 08:32:12;;;;;;;1.70;1.60;;;;;;;;;;5029629;28;20545;-68
2022/10/02 08:34:39;;;;;;;1.60;1.50;;;;;;;;;;5034099;28;20115;-69
2022/10/02 08:37:23;;;;;;;4.28;1.48;;;;;;;;;;5030247;28;20076;-69
2022/10/02 08:40:13;;;;;;;2.60;1.65;;;;;;;;;;5034227;28;20438;-70
2022/10/02 08:42:49;;;;;;;;;;;;;;;;;;5030476;28;20038;-70
2022/10/02 08:45:38;;;;;;;3.00;1.60;;;;;;;;;;5031909;28;19920;-69
2022/10/02 08:48:22;;;;;;;1.50;1.33;;;;;;;;;;5033077;28;20032;-68
2022/10/02 08:50:51;;;;;;;1.55;1.45;;;;;;;;;;5031007;28;20064;-71
2022/10/02 08:53:51;;;;;;;1.60;1.40;;;;;;;;;;5032301;28;20526;-69
2022/10/02 08:56:25;;;;;;;1.60;1.50;;;;;;;;;;5031953;28;20064;-69
2022/10/02 08:59:25;;;;;;;1.88;1.40;;;;;;;;;;5031009;28;20112;-68
2022/10/02 09:02:15;;;;;;;1.48;1.38;;;;;;;;;;5018407;28;20485;-67
2022/10/02 09:05:02;;;;;;;1.52;1.42;;;;;;;;;;5032673;28;20120;-71
2022/10/02 09:07:49;;;;;;;1.60;1.50;;;;;;;;;;5033786;28;20033;-71
2022/10/02 09:10:36;;;;;;;1.40;1.30;;;;;;;;;;5034078;28;20064;-70
2022/10/02 09:13:35;;;;;;;3.85;1.30;;;;;;;;;;5033716;28;20033;-71
2022/10/02 09:16:03;;;;;;;2.57;1.37;;;;;;;;;;5033906;28;20029;-71
2022/10/02 09:18:47;;;;;;;1.50;1.40;;;;;;;;;;5033721;28;20025;-71
2022/10/02 09:21:42;;;;;;;1.77;1.20;;;;;;;;;;5025721;28;20065;-72
2022/10/02 09:24:30;;;;;;;2.58;1.50;;;;;;;;;;5019575;28;20096;-72
2022/10/02 09:27:14;;;;;;;1.30;1.20;;;;;;;;;;5006752;28;20398;-71
2022/10/02 09:30:17;;;;;;;1.48;1.30;;;;;;;;;;5013483;28;20022;-70
2022/10/02 09:33:01;;;;;;;1.85;1.25;;;;;;;;;;5013590;28;20057;-70
2022/10/02 09:35:52;;;;;;;1.77;1.20;;;;;;;;;;5016389;28;20053;-70
2022/10/02 09:38:38;;;;;;;1.85;1.30;;;;;;;;;;5027062;28;20037;-70
2022/10/02 09:41:07;;;;;;;1.60;1.45;;;;;;;;;;5032861;28;20088;-70
2022/10/02 09:44:02;;;;;;;2.20;1.50;;;;;;;;;;5033312;28;20119;-71
2022/10/02 09:46:51;;;;;;;2.13;1.33;;;;;;;;;;5033266;28;20041;-71
2022/10/02 09:49:32;;;;;;;2.00;1.40;;;;;;;;;;5033049;28;20025;-71
2022/10/02 09:52:16;;;;;;;1.80;1.48;;;;;;;;;;5032936;28;20483;-70
2022/10/02 09:54:57;;;;;;;1.65;1.40;;;;;;;;;;5033381;28;20112;-71
2022/10/02 09:57:53;;;;;;;2.30;1.45;;;;;;;;;;5031257;28;20021;-71
2022/10/02 10:00:52;;;;;;;2.05;1.40;;;;;;;;;;5033165;28;20033;-70
2022/10/02 10:03:51;;;;;;;1.60;1.30;;;;;;;;;;5032610;28;20029;-71
2022/10/02 10:06:47;;;;;;;2.88;1.40;;;;;;;;;;5032796;28;20771;-71
2022/10/02 10:09:28;;;;;;;1.67;1.40;;;;;;;;;;5032512;28;20029;-71
2022/10/02 10:12:31;;;;;;;1.80;1.55;;;;;;;;;;5033119;28;20026;-72
2022/10/02 10:15:17;;;;;;;2.50;1.38;;;;;;;;;;5032672;28;20033;-71
2022/10/02 10:17:59;;;;;;;1.83;1.40;;;;;;;;;;5032428;28;20473;-69
2022/10/02 10:20:35;;;;;;;1.83;1.40;;;;;;;;;;5023880;28;20029;-70
2022/10/02 10:23:27;;;;;;;2.00;1.60;;;;;;;;;;5012996;28;20092;-70
2022/10/02 10:26:08;;;;;;;3.15;1.60;;;;;;;;;;5011060;28;20421;-70
2022/10/02 10:28:42;;;;;;;3.63;1.70;;;;;;;;;;5013063;28;20053;-68
2022/10/02 10:31:49;;;;;;;3.33;2.15;;;;;;;;;;5012666;28;20026;-69
2022/10/02 10:34:36;;;;;;;1.70;1.52;;;;;;;;;;5011330;28;20061;-71
2022/10/02 10:41:08;;;;;;;1.95;1.40;;;;;;;;;;5011563;28;20512;-70
2022/10/02 10:44:00;;;;;;;1.60;1.50;;;;;;;;;;5012596;28;20042;-69
2022/10/02 10:46:42;;;;;;;3.95;1.50;;;;;;;;;;5012594;28;20026;-70
2022/10/02 10:49:36;;;;;;;1.50;1.40;;;;;;;;;;5012944;28;20390;-69
2022/10/02 10:52:24;;;;;;;2.55;1.45;;;;;;;;;;5012721;28;20408;-68
2022/10/02 10:55:14;;;;;;;1.73;1.20;;;;;;;;;;5012455;28;20092;-70
2022/10/02 10:57:39;;;;;;;;;;;;;;;;;;5012194;28;20096;-70
2022/10/02 11:00:19;;;;;;;1.80;1.35;;;;;;;;;;5012661;28;19913;-70
2022/10/02 11:03:22;;;;;;;1.60;1.30;;;;;;;;;;5012312;28;20029;-69
2022/10/02 11:06:05;;;;;;;4.97;1.50;;;;;;;;;;5012219;28;20830;-71
2022/10/02 11:08:37;;;;;;;1.30;1.20;;;;;;;;;;5012657;28;20025;-70
2022/10/02 11:11:18;;;;;;;1.33;1.10;;;;;;;;;;5015225;28;20482;-71
2022/10/02 11:13:47;;;;;;;1.67;1.52;;;;;;;;;;5014863;28;20069;-71
2022/10/02 11:16:37;;;;;;;2.83;1.40;;;;;;;;;;5015968;28;20022;-70
2022/10/02 11:19:40;;;;;;;1.88;1.38;;;;;;;;;;5016186;28;20029;-70
2022/10/02 11:22:20;;;;;;;4.60;1.48;;;;;;;;;;5013426;28;20038;-71
2022/10/02 11:24:57;;;;;;;1.42;1.20;;;;;;;;;;5016287;28;20076;-70
2022/10/02 11:27:25;;;;;;;1.38;1.25;;;;;;;;;;5015864;28;20500;-71
2022/10/02 11:30:19;;;;;;;2.30;1.33;;;;;;;;;;5015960;28;20517;-71
2022/10/02 11:33:09;;;;;;;3.17;1.30;;;;;;;;;;5014562;28;20038;-71
2022/10/02 11:36:07;;;;;;;2.47;1.40;;;;;;;;;;5015553;28;20516;-71
2022/10/02 11:39:04;;;;;;;3.88;1.33;;;;;;;;;;5015632;28;20033;-71
2022/10/02 11:42:08;;;;;;;3.75;1.38;;;;;;;;;;5015542;28;20470;-70
2022/10/02 11:44:53;;;;;;;2.05;1.40;;;;;;;;;;5015909;28;20431;-71
2022/10/02 11:47:34;;;;;;;1.30;1.20;;;;;;;;;;5015586;28;20030;-71
2022/10/02 11:50:11;;;;;;;1.90;1.33;;;;;;;;;;5019498;28;20017;-68
2022/10/02 11:53:06;;;;;;;4.38;1.30;;;;;;;;;;5034870;28;20080;-68
2022/10/02 11:55:31;;;;;;;2.13;1.17;;;;;;;;;;5032326;28;20035;-69
2022/10/02 11:58:21;;;;;;;1.85;1.30;;;;;;;;;;5029836;28;20381;-67
2022/10/02 12:01:04;;;;;;;3.35;1.27;;;;;;;;;;5034541;28;20128;-68
2022/10/02 12:03:43;;;;;;;2.40;1.33;;;;;;;;;;5033626;28;20083;-68
2022/10/02 12:06:25;;;;;;;1.57;1.30;;;;;;;;;;5033968;28;20475;-68
2022/10/02 12:09:20;;;;;;;1.60;1.17;;;;;;;;;;5034848;28;20472;-69
2022/10/02 12:12:01;;;;;;;2.42;1.33;;;;;;;;;;5033958;28;20421;-68
2022/10/02 12:14:42;;;;;;;1.50;1.25;;;;;;;;;;5034893;28;20365;-68
2022/10/02 12:17:52;;;;;;;1.52;1.40;;;;;;;;;;5034709;28;20029;-68
2022/10/02 12:26:58;;;;;;;;;;;;;;;;;;5035422;28;19920;-68
2022/10/02 12:29:59;;;;;;;1.73;1.40;;;;;;;;;;5034535;28;19913;-69
2022/10/02 12:33:06;;;;;;;1.42;1.20;;;;;;;;;;5034698;28;20029;-68
2022/10/02 12:35:53;;;;;;;2.63;1.40;;;;;;;;;;5034449;28;20025;-68
2022/10/02 12:38:31;;;;;;;3.08;1.20;;;;;;;;;;5034219;28;20041;-68
2022/10/02 12:41:21;;;;;;;2.55;1.50;;;;;;;;;;5034187;28;20050;-68
2022/10/02 12:44:15;;;;;;;2.83;1.33;;;;;;;;;;5034287;28;20112;-68
2022/10/02 12:47:03;;;;;;;3.67;1.35;;;;;;;;;;5034306;28;20024;-67
2022/10/02 12:50:02;;;;;;;3.55;1.48;;;;;;;;;;5034439;28;20397;-68
2022/10/02 12:53:05;;;;;;;3.47;1.45;;;;;;;;;;5033985;28;20099;-68
2022/10/02 12:56:12;;;;;;;2.97;1.45;;;;;;;;;;5034268;28;20041;-68
2022/10/02 12:58:41;;;;;;;4.78;1.75;;;;;;;;;;5033320;28;20038;-68
2022/10/02 13:02:04;;;;;;;2.35;1.40;;;;;;;;;;5034214;28;20029;-68
2022/10/02 13:04:41;;;;;;;1.40;1.30;;;;;;;;;;5051383;28;20111;-68
2022/10/02 13:07:27;;;;;;;3.25;1.50;;;;;;;;;;5035535;28;20472;-68
2022/10/02 13:10:04;;;;;;;1.85;1.40;;;;;;;;;;5034018;28;20390;-68
2022/10/02 13:12:50;;;;;;;2.40;1.25;;;;;;;;;;5034090;28;20029;-68
2022/10/02 13:15:36;;;;;;;2.88;1.38;;;;;;;;;;5033568;28;20109;-68
2022/10/02 13:18:26;;;;;;;1.73;1.02;;;;;;;;;;5033601;28;20036;-68
2022/10/02 13:21:26;;;;;;;1.65;1.33;;;;;;;;;;5033514;28;20029;-68
2022/10/02 13:24:00;;;;;;;2.30;1.33;;;;;;;;;;5033492;28;20095;-68
2022/10/02 13:26:41;;;;;;;1.98;1.20;;;;;;;;;;5033784;28;20411;-67
2022/10/02 13:29:12;;;;;;;2.38;1.10;;;;;;;;;;5033665;28;20032;-68
2022/10/02 13:31:53;;;;;;;3.35;1.30;;;;;;;;;;5033215;28;20029;-69
2022/10/02 13:34:19;;;;;;;1.73;1.35;;;;;;;;;;5033201;28;20117;-69
2022/10/02 13:37:25;;;;;;;2.78;1.30;;;;;;;;;;5033207;28;20469;-67
2022/10/02 13:39:57;;;;;;;1.33;1.10;;;;;;;;;;5032869;28;20049;-68
2022/10/02 13:43:03;;;;;;;2.35;1.38;;;;;;;;;;5033030;28;20116;-68
2022/10/02 13:45:52;;;;;;;1.30;1.20;;;;;;;;;;5033465;28;20021;-68
2022/10/02 13:48:36;;;;;;;1.88;1.52;;;;;;;;;;5033410;28;20424;-68
2022/10/02 13:51:23;;;;;;;3.35;1.30;;;;;;;;;;5032872;28;20056;-68
2022/10/02 13:54:15;;;;;;;1.20;1.10;;;;;;;;;;5033040;28;20030;-68
2022/10/02 13:56:55;;;;;;;1.40;1.27;;;;;;;;;;5033142;28;20064;-68
2022/10/02 13:59:26;;;;;;;1.38;1.27;;;;;;;;;;5032884;28;20083;-68
2022/10/02 14:02:27;;;;;;;1.13;1.02;;;;;;;;;;5033056;28;20029;-68
2022/10/02 14:05:15;;;;;;;1.60;1.25;;;;;;;;;;5032853;28;20061;-69
2022/10/02 14:07:51;;;;;;;2.30;1.30;;;;;;;;;;5032991;28;20080;-68
2022/10/02 14:10:31;;;;;;;2.95;1.10;;;;;;;;;;5033048;28;20030;-68
2022/10/02 14:13:36;;;;;;;1.50;1.20;;;;;;;;;;5032684;28;20505;-69
2022/10/02 14:16:26;;;;;;;2.53;1.30;;;;;;;;;;5032616;28;20061;-69
2022/10/02 14:19:16;;;;;;;1.40;1.10;;;;;;;;;;5032809;28;20477;-69
2022/10/02 14:22:17;;;;;;;1.60;1.27;;;;;;;;;;5032491;28;20041;-68
2022/10/02 14:25:08;;;;;;;1.20;1.10;;;;;;;;;;5032373;28;20040;-69
2022/10/02 14:28:12;;;;;;;1.40;1.20;;;;;;;;;;5032453;28;20025;-68
2022/10/02 14:31:02;;;;;;;1.20;1.02;;;;;;;;;;5032513;28;20029;-69
2022/10/02 14:33:40;;;;;;;2.42;1.05;;;;;;;;;;5032965;28;20207;-69
2022/10/02 14:36:17;;;;;;;1.05;1.00;;;;;;;;;;5032378;28;20115;-68
2022/10/02 14:38:51;;;;;;;1.30;1.10;;;;;;;;;;5032622;28;20028;-69
2022/10/02 14:41:30;;;;;;;2.25;1.40;;;;;;;;;;5032213;28;20497;-67
2022/10/02 14:44:06;;;;;;;2.65;1.40;;;;;;;;;;5034377;28;20156;-69
2022/10/02 14:46:49;;;;;;;1.63;1.15;;;;;;;;;;5038773;28;20047;-68
2022/10/02 14:49:53;;;;;;;1.13;1.00;;;;;;;;;;5039257;28;20025;-68
2022/10/02 14:52:21;;;;;;;1.13;1.13;;;;;;;;;;5038842;28;20029;-68
2022/10/02 14:55:02;;;;;;;2.15;1.23;;;;;;;;;;5038925;28;20164;-68
2022/10/02 14:57:51;;;;;;;2.22;1.35;;;;;;;;;;5039091;28;20071;-68
2022/10/02 15:00:19;;;;;;;1.60;1.27;;;;;;;;;;5038777;28;20033;-67
2022/10/02 15:03:15;;;;;;;1.52;1.40;;;;;;;;;;5039010;28;20057;-68
2022/10/02 15:06:04;;;;;;;1.23;1.13;;;;;;;;;;5038704;28;20040;-66
2022/10/02 15:08:35;;;;;;;1.40;1.30;;;;;;;;;;5038869;28;20042;-68
2022/10/02 15:11:03;;;;;;;1.77;1.20;;;;;;;;;;5038653;28;20060;-69
2022/10/02 15:13:54;;;;;;;1.63;1.17;;;;;;;;;;5038589;28;20033;-69
2022/10/02 15:19:33;;;;;;;1.50;1.40;;;;;;;;;;5038675;28;20128;-69
2022/10/02 15:22:44;;;;;;;2.72;1.33;;;;;;;;;;5038741;28;20039;-69
2022/10/02 15:25:31;;;;;;;2.08;1.10;;;;;;;;;;5037340;28;20515;-68
2022/10/02 15:28:13;;;;;;;2.15;1.05;;;;;;;;;;5038585;28;20043;-68
2022/10/02 15:30:50;;;;;;;1.42;1.33;;;;;;;;;;5038402;28;20025;-69
2022/10/02 15:33:26;;;;;;;1.40;1.27;;;;;;;;;;5038761;28;20101;-69
2022/10/02 15:36:16;;;;;;;1.05;1.00;;;;;;;;;;5038896;28;20025;-68
2022/10/02 15:38:53;;;;;;;1.50;1.25;;;;;;;;;;5038716;28;20025;-67
2022/10/02 15:41:39;;;;;;;2.20;1.13;;;;;;;;;;5038198;28;20041;-69
2022/10/02 15:44:27;;;;;;;1.95;1.30;;;;;;;;;;5038492;28;20041;-68
2022/10/02 15:47:22;;;;;;;1.95;1.45;;;;;;;;;;5038684;28;20026;-69
2022/10/02 15:50:15;;;;;;;4.45;1.30;;;;;;;;;;5037661;28;20029;-69
2022/10/02 15:52:59;;;;;;;1.65;1.40;;;;;;;;;;5038316;28;20033;-69
2022/10/02 15:55:37;;;;;;;3.10;1.52;;;;;;;;;;5036552;28;20033;-68
2022/10/02 15:58:18;;;;;;;4.13;2.00;;;;;;;;;;5035381;28;20034;-68
2022/10/02 16:00:59;;;;;;;3.33;2.20;;;;;;;;;;5035485;28;20033;-69
2022/10/02 16:03:44;;;;;;;5.00;1.75;;;;;;;;;;5035338;28;20373;-68
2022/10/02 16:06:18;;;;;;;2.55;1.90;;;;;;;;;;5034945;28;20033;-68
2022/10/02 16:08:59;;;;;;;2.20;1.60;;;;;;;;;;5034958;28;20018;-68
2022/10/02 16:12:06;;;;;;;1.67;1.52;;;;;;;;;;5034914;28;20025;-68
2022/10/02 16:14:48;;;;;;;2.05;1.48;;;;;;;;;;5034284;28;20132;-69
2022/10/02 16:17:32;;;;;;;3.10;1.50;;;;;;;;;;5035106;28;20473;-68
2022/10/02 16:20:32;;;;;;;1.67;1.30;;;;;;;;;;5034577;28;20033;-68
2022/10/02 16:22:58;;;;;;;2.42;1.42;;;;;;;;;;5034927;28;20034;-68
2022/10/02 16:25:32;;;;;;;2.38;1.27;;;;;;;;;;5034756;28;20449;-68
2022/10/02 16:28:22;;;;;;;1.30;1.23;;;;;;;;;;5034657;28;20032;-68